Aeroporto :
LOGIN :

Iscrizione | Disclaimer

   EN    FR    IT 

 










Sommario :    VFR   VFR Marginale   IFR   IFR Intensivo   IFR Molto Intensivo
Visibilità : 
Base nubi : 
>= 8 km
>= 3000ft
5 / 8 km
1000 / 3000 ft
1500m / 5 km
500 / 1000 ft
800 / 1500m
200 / 500 ft
< 800m
< 200 ft
Simboli :   Temporali  Nebbia  Neve Forte  Precipitazioni Forti  Vento > 20 kt
SIGMETs :   Varie  Temporali  Ghiacco  Turbolenza  Onda orograficha  Ceneri Vulcaniche






- Altitudine del aeroporto : 821 ft
- Codice IATA : LYS


LFLL - Lyon St Exupéry / Satolas

ULTIMO METAR :
  • 051330Z VRB02KT 9999 SCT046 SCT230 23/13 Q1013 NOSIG

METARs OBSOLETI :
  • 051300Z 27003KT 200V330 9999 SCT046 BKN230 23/13 Q1013 NOSIG
  • 051230Z 36005KT 320V050 9999 SCT041 BKN230 23/12 Q1013 NOSIG
  • 051200Z 34005KT 310V010 9999 SCT041 BKN230 22/13 Q1013 NOSIG
  • 051130Z VRB06KT 9999 SCT033 SCT060 BKN230 22/14 Q1013 NOSIG
  • 051100Z VRB04KT 9999 FEW023 SCT038 BKN073 22/15 Q1014 NOSIG

TAF TAF LFLL
Valido dal 05 a 12 ore il 06 a 18 ore UTC


051100Z 0512/0618 36005KT 9999 SCT040
BECMG 0520/0523 18008KT
BECMG 0604/0607 VRB03KT



MetMap, La meteo Aeronautica in un colpo d'occhio ! - Copyright ORBIFLY Dicembre 2007 - Disclaimer

ORBIFLY MET'MAP TEAM :

Programmazione e sviluppo : Alexandra Zaïnal
Concezione : Baudouin d'Aumeries
Aiuto per la programmazione : Marc-Olivier Méhu
Supporto tecnico e logistico : Manuel Goepfert
Aiuto per la traduzione : Arnaldo La Scala

Contatto : metmap@orbifly.com




FONTI E CREDITI :

   NOAA